Terminal Aerodrome Forecast
Issued by NWS Bismarck, ND

Home | Current Version | Previous Version | Text Only | Print | Product List | Glossary Off
Versions: 1 2 3 4 5 6 7 8 9 10 11 12 13 14 15 16 17 18 19 20 21 22 23 24 25 26 27 28 29 30

197
FTUS43 KBIS 271316 AAA
TAFISN
TAF AMD
KISN 271316Z 2713/2812 02007KT 2SM -SN OVC015
     FM271500 02008KT 1 1/2SM -SN OVC010
     FM272100 04008KT P6SM VCSH BKN020
     FM272200 05008KT P6SM BKN020=

USA.gov is the U.S. government's official web portal to all federal, state and local government web resources and services.